Time;durP1;ratioP1;P1;durP2;ratioP2;P2;SDS_P1;SDS_P2;PMS_P1;PMS_P2;Temp;Humidity;BMP_temperature;BMP_pressure;BME280_temperature;BME280_humidity;BME280_pressure;Samples;Min_cycle;Max_cycle;Signal;HPM_P1;HPM_P2
2023/05/24 00:01:37;;;;;;;;;;;;;;;;;;4987888;28;1701;-59
2023/05/24 00:04:02;;;;;;;;;;;;;;;;;;4983504;28;1706;-59
2023/05/24 00:06:27;;;;;;;;;;;;;;;;;;4970387;28;1923;-60
2023/05/24 00:08:53;;;;;;;;;;;;;;;;;;4987367;28;1445;-59
2023/05/24 00:11:18;;;;;;;;;;;;;;;;;;4986528;28;1482;-59
2023/05/24 00:13:43;;;;;;;;;;;;;;;;;;4988105;28;1757;-60
2023/05/24 00:16:09;;;;;;;;;;;;;;;;;;4997849;28;1730;-60
2023/05/24 00:18:40;;;;;;;;;;;;;;;;;;4991012;28;1657;-59
2023/05/24 00:21:08;;;;;;;;;;;;;;;;;;4990756;28;1642;-59
2023/05/24 00:23:33;;;;;;;;;;;;;;;;;;4985509;28;3371;-58
2023/05/24 00:26:00;;;;;;;;;;;;;;;;;;4988553;28;1959;-59
2023/05/24 00:28:25;;;;;;;;;;;;;;;;;;4985927;28;1212;-57
2023/05/24 00:30:50;;;;;;;;;;;;;;;;;;4978611;28;1462;-59
2023/05/24 00:33:16;;;;;;;;;;;;;;;;;;4985914;28;1440;-59
2023/05/24 00:35:41;;;;;;;;;;;;;;;;;;4988204;28;1357;-60
2023/05/24 00:38:06;;;;;;;;;;;;;;;;;;4985687;28;1417;-59
2023/05/24 00:40:31;;;;;;;;;;;;;;;;;;4989203;28;1695;-59
2023/05/24 00:42:57;;;;;;;;;;;;;;;;;;4990213;28;1296;-58
2023/05/24 00:45:22;;;;;;;;;;;;;;;;;;4987449;28;1906;-59
2023/05/24 00:47:47;;;;;;;;;;;;;;;;;;4990232;28;1574;-58
2023/05/24 00:50:13;;;;;;;;;;;;;;;;;;4990637;28;1607;-58
2023/05/24 00:52:39;;;;;;;;;;;;;;;;;;4989062;28;1711;-59
2023/05/24 00:55:05;;;;;;;;;;;;;;;;;;4985362;28;1366;-59
2023/05/24 00:57:31;;;;;;;;;;;;;;;;;;5003821;28;1862;-59
2023/05/24 00:59:56;;;;;;;;;;;;;;;;;;4989399;28;2136;-57
2023/05/24 01:02:21;;;;;;;;;;;;;;;;;;4990630;28;1779;-60
2023/05/24 01:04:47;;;;;;;;;;;;;;;;;;4990934;28;1736;-58
2023/05/24 01:07:31;;;;;;;;;;;;;;;;;;4989952;28;1957;-59
2023/05/24 01:10:12;;;;;;;;;;;;;;;;;;4989976;28;1489;-59
2023/05/24 01:12:38;;;;;;;;;;;;;;;;;;4989107;28;2286;-59
2023/05/24 01:15:09;;;;;;;;;;;;;;;;;;4989011;28;1536;-59
2023/05/24 01:17:35;;;;;;;;;;;;;;;;;;4988716;28;1628;-60
2023/05/24 01:20:06;;;;;;;;;;;;;;;;;;4989651;28;2036;-60
2023/05/24 01:22:50;;;;;;;;;;;;;;;;;;4986734;28;1378;-60
2023/05/24 01:25:16;;;;;;;;;;;;;;;;;;4980954;28;1969;-60
2023/05/24 01:27:41;;;;;;;;;;;;;;;;;;4989247;28;1563;-59
2023/05/24 01:30:06;;;;;;;;;;;;;;;;;;4988539;28;5012;-58
2023/05/24 01:32:32;;;;;;;;;;;;;;;;;;4988399;28;1804;-58
2023/05/24 01:34:57;;;;;;;;;;;;;;;;;;4990093;28;1834;-59
2023/05/24 01:37:22;;;;;;;;;;;;;;;;;;4989741;28;1642;-60
2023/05/24 01:39:47;;;;;;;;;;;;;;;;;;4984834;28;1786;-60
2023/05/24 01:42:31;;;;;;;;;;;;;;;;;;4990020;28;1761;-59
2023/05/24 01:45:05;;;;;;;;;;;;;;;;;;4989896;28;1735;-59
2023/05/24 01:47:43;;;;;;;;;;;;;;;;;;4990055;28;1986;-59
2023/05/24 01:50:12;;;;;;;;;;;;;;;;;;4989414;28;1674;-59
2023/05/24 01:52:37;;;;;;;;;;;;;;;;;;4987417;28;1515;-58
2023/05/24 01:55:03;;;;;;;;;;;;;;;;;;4983897;28;2037;-58
2023/05/24 01:57:28;;;;;;;;;;;;;;;;;;4964590;28;1856;-59
2023/05/24 01:59:53;;;;;;;;;;;;;;;;;;4988150;28;1634;-59
2023/05/24 02:02:19;;;;;;;;;;;;;;;;;;4987433;28;1568;-59
2023/05/24 02:04:44;;;;;;;;;;;;;;;;;;4985521;28;1631;-60
2023/05/24 02:07:09;;;;;;;;;;;;;;;;;;4987758;28;1959;-59
2023/05/24 02:09:34;;;;;;;;;;;;;;;;;;4989677;28;1745;-60
2023/05/24 02:12:01;;;;;;;;;;;;;;;;;;4988351;28;1313;-60
2023/05/24 02:14:26;;;;;;;;;;;;;;;;;;4989089;28;2264;-59
2023/05/24 02:16:51;;;;;;;;;;;;;;;;;;4989260;28;1565;-59
2023/05/24 02:19:16;;;;;;;;;;;;;;;;;;4984020;28;1851;-59
2023/05/24 02:21:42;;;;;;;;;;;;;;;;;;4980650;28;3350;-58
2023/05/24 02:24:10;;;;;;;;;;;;;;;;;;4982113;28;3062;-59
2023/05/24 02:26:35;;;;;;;;;;;;;;;;;;4987157;28;1956;-58
2023/05/24 02:29:01;;;;;;;;;;;;;;;;;;4987896;28;5107;-57
2023/05/24 02:31:27;;;;;;;;;;;;;;;;;;4988083;28;3181;-58
2023/05/24 02:33:53;;;;;;;;;;;;;;;;;;4981635;28;1836;-58
2023/05/24 02:36:18;;;;;;;;;;;;;;;;;;4996424;28;1515;-58
2023/05/24 02:38:43;;;;;;;;;;;;;;;;;;4988924;28;1536;-58
2023/05/24 02:41:10;;;;;;;;;;;;;;;;;;4984360;28;3182;-58
2023/05/24 02:43:35;;;;;;;;;;;;;;;;;;4988738;28;1379;-58
2023/05/24 02:46:01;;;;;;;;;;;;;;;;;;4985436;28;3478;-57
2023/05/24 02:48:26;;;;;;;;;;;;;;;;;;4988499;28;3284;-59
2023/05/24 02:50:51;;;;;;;;;;;;;;;;;;4985914;28;3286;-58
2023/05/24 02:53:16;;;;;;;;;;;;;;;;;;4988224;28;1373;-59
2023/05/24 02:55:42;;;;;;;;;;;;;;;;;;4987088;28;1634;-59
2023/05/24 02:58:08;;;;;;;;;;;;;;;;;;4987157;28;2263;-59
2023/05/24 03:00:33;;;;;;;;;;;;;;;;;;4981719;28;3216;-58
2023/05/24 03:03:01;;;;;;;;;;;;;;;;;;4985997;28;3120;-59
2023/05/24 03:05:27;;;;;;;;;;;;;;;;;;4988519;28;1961;-58
2023/05/24 03:07:52;;;;;;;;;;;;;;;;;;4987976;28;1280;-58
2023/05/24 03:10:17;;;;;;;;;;;;;;;;;;4980954;28;3157;-58
2023/05/24 03:12:42;;;;;;;;;;;;;;;;;;4985582;28;3271;-58
2023/05/24 03:15:08;;;;;;;;;;;;;;;;;;4986731;28;3449;-58
2023/05/24 03:17:33;;;;;;;;;;;;;;;;;;4979501;28;3142;-58
2023/05/24 03:19:58;;;;;;;;;;;;;;;;;;4987493;28;1423;-59
2023/05/24 03:22:24;;;;;;;;;;;;;;;;;;4985398;28;1432;-58
2023/05/24 03:24:49;;;;;;;;;;;;;;;;;;4985884;28;2249;-58
2023/05/24 03:27:14;;;;;;;;;;;;;;;;;;4986513;28;1969;-58
2023/05/24 03:29:39;;;;;;;;;;;;;;;;;;4985807;28;5020;-58
2023/05/24 03:32:05;;;;;;;;;;;;;;;;;;4988117;28;1576;-57
2023/05/24 03:34:30;;;;;;;;;;;;;;;;;;4983854;28;3222;-58
2023/05/24 03:36:55;;;;;;;;;;;;;;;;;;4988153;28;1345;-58
2023/05/24 03:39:21;;;;;;;;;;;;;;;;;;4982301;28;1436;-59
2023/05/24 03:41:46;;;;;;;;;;;;;;;;;;4984408;28;3024;-59
2023/05/24 03:44:11;;;;;;;;;;;;;;;;;;4985477;28;3208;-59
2023/05/24 03:46:37;;;;;;;;;;;;;;;;;;4980137;28;3238;-58
2023/05/24 03:49:02;;;;;;;;;;;;;;;;;;4986056;28;3304;-59
2023/05/24 03:51:30;;;;;;;;;;;;;;;;;;4988077;28;3256;-59
2023/05/24 03:53:56;;;;;;;;;;;;;;;;;;4986098;28;3205;-58
2023/05/24 03:56:21;;;;;;;;;;;;;;;;;;4986865;28;3324;-59
2023/05/24 03:58:46;;;;;;;;;;;;;;;;;;4989370;28;3658;-58
2023/05/24 04:01:12;;;;;;;;;;;;;;;;;;5003678;28;3299;-58
2023/05/24 04:03:37;;;;;;;;;;;;;;;;;;4991071;28;1651;-59
2023/05/24 04:06:03;;;;;;;;;;;;;;;;;;4991834;28;1963;-58
2023/05/24 04:08:28;;;;;;;;;;;;;;;;;;4986832;28;3279;-59
2023/05/24 04:10:53;;;;;;;;;;;;;;;;;;4986030;28;3210;-58
2023/05/24 04:13:18;;;;;;;;;;;;;;;;;;4982435;28;1718;-58
2023/05/24 04:15:44;;;;;;;;;;;;;;;;;;4981351;28;3292;-60
2023/05/24 04:18:10;;;;;;;;;;;;;;;;;;4985918;28;3091;-59
2023/05/24 04:20:36;;;;;;;;;;;;;;;;;;4981056;28;3337;-59
2023/05/24 04:23:01;;;;;;;;;;;;;;;;;;4984165;28;3028;-58
2023/05/24 04:25:26;;;;;;;;;;;;;;;;;;4990715;28;1910;-58
2023/05/24 04:27:52;;;;;;;;;;;;;;;;;;4990433;28;1628;-58
2023/05/24 04:30:17;;;;;;;;;;;;;;;;;;4988585;28;5041;-58
2023/05/24 04:32:46;;;;;;;;;;;;;;;;;;4977250;28;1631;-59
2023/05/24 04:35:11;;;;;;;;;;;;;;;;;;4986493;28;1491;-59
2023/05/24 04:37:36;;;;;;;;;;;;;;;;;;4987221;28;3297;-59
2023/05/24 04:40:05;;;;;;;;;;;;;;;;;;4989257;28;3075;-58
2023/05/24 04:42:30;;;;;;;;;;;;;;;;;;4990263;28;1439;-57
2023/05/24 04:44:56;;;;;;;;;;;;;;;;;;4985259;28;3383;-59
2023/05/24 04:47:21;;;;;;;;;;;;;;;;;;4988490;28;3226;-59
2023/05/24 04:49:46;;;;;;;;;;;;;;;;;;4990565;28;1459;-59
2023/05/24 04:52:11;;;;;;;;;;;;;;;;;;4990305;28;1717;-58
2023/05/24 04:54:37;;;;;;;;;;;;;;;;;;4982133;28;2364;-59
2023/05/24 04:57:02;;;;;;;;;;;;;;;;;;4987294;28;1924;-59
2023/05/24 04:59:27;;;;;;;;;;;;;;;;;;4989477;28;3165;-59
2023/05/24 05:01:52;;;;;;;;;;;;;;;;;;4989893;28;3290;-59
2023/05/24 05:04:18;;;;;;;;;;;;;;;;;;4989050;28;3565;-59
2023/05/24 05:06:43;;;;;;;;;;;;;;;;;;4987783;28;1971;-57
2023/05/24 05:09:09;;;;;;;;;;;;;;;;;;4986344;28;3370;-58
2023/05/24 05:11:35;;;;;;;;;;;;;;;;;;4987461;28;2909;-60
2023/05/24 05:14:00;;;;;;;;;;;;;;;;;;4989066;28;1390;-59
2023/05/24 05:16:25;;;;;;;;;;;;;;;;;;4983671;28;3242;-60
2023/05/24 05:18:50;;;;;;;;;;;;;;;;;;4990044;28;1376;-59
2023/05/24 05:21:16;;;;;;;;;;;;;;;;;;4989957;28;1333;-58
2023/05/24 05:23:41;;;;;;;;;;;;;;;;;;4976913;28;1556;-59
2023/05/24 05:26:06;;;;;;;;;;;;;;;;;;4987709;28;2401;-59
2023/05/24 05:28:32;;;;;;;;;;;;;;;;;;4988482;28;3085;-59
2023/05/24 05:30:57;;;;;;;;;;;;;;;;;;4985326;28;5000;-58
2023/05/24 05:33:22;;;;;;;;;;;;;;;;;;4989900;28;1447;-59
2023/05/24 05:35:48;;;;;;;;;;;;;;;;;;4988528;28;3204;-60
2023/05/24 05:38:13;;;;;;;;;;;;;;;;;;4980299;28;3260;-60
2023/05/24 05:40:38;;;;;;;;;;;;;;;;;;4978043;28;3113;-59
2023/05/24 05:43:04;;;;;;;;;;;;;;;;;;4986292;28;3250;-59
2023/05/24 05:45:29;;;;;;;;;;;;;;;;;;4986875;28;3458;-59
2023/05/24 05:47:54;;;;;;;;;;;;;;;;;;4989093;28;2922;-60
2023/05/24 05:50:20;;;;;;;;;;;;;;;;;;4978799;28;3219;-60
2023/05/24 05:52:45;;;;;;;;;;;;;;;;;;4985959;28;3273;-59
2023/05/24 05:55:11;;;;;;;;;;;;;;;;;;4983067;28;3276;-60
2023/05/24 05:57:36;;;;;;;;;;;;;;;;;;4987464;28;3175;-60
2023/05/24 06:00:02;;;;;;;;;;;;;;;;;;4987689;28;3400;-58
2023/05/24 06:02:27;;;;;;;;;;;;;;;;;;4986365;28;1747;-59
2023/05/24 06:04:53;;;;;;;;;;;;;;;;;;4986777;28;3095;-60
2023/05/24 06:07:18;;;;;;;;;;;;;;;;;;4983807;28;1980;-59
2023/05/24 06:09:43;;;;;;;;;;;;;;;;;;4986051;28;3564;-58
2023/05/24 06:12:08;;;;;;;;;;;;;;;;;;4984193;28;2964;-59
2023/05/24 06:14:37;;;;;;;;;;;;;;;;;;4981873;28;1470;-60
2023/05/24 06:17:02;;;;;;;;;;;;;;;;;;4986723;28;3374;-60
2023/05/24 06:19:28;;;;;;;;;;;;;;;;;;4984598;28;3160;-62
2023/05/24 06:21:53;;;;;;;;;;;;;;;;;;4987296;28;3519;-65
2023/05/24 06:24:21;;;;;;;;;;;;;;;;;;4982822;28;3340;-67
2023/05/24 06:26:47;;;;;;;;;;;;;;;;;;4985176;28;3443;-64
2023/05/24 06:29:12;;;;;;;;;;;;;;;;;;4987818;28;5000;-64
2023/05/24 06:31:38;;;;;;;;;;;;;;;;;;4987434;28;3284;-65
2023/05/24 06:34:03;;;;;;;;;;;;;;;;;;4987529;28;1490;-64
2023/05/24 06:36:28;;;;;;;;;;;;;;;;;;4985882;28;1637;-62
2023/05/24 06:38:53;;;;;;;;;;;;;;;;;;4988048;28;1225;-62
2023/05/24 06:41:19;;;;;;;;;;;;;;;;;;4986301;28;3265;-63
2023/05/24 06:43:45;;;;;;;;;;;;;;;;;;4965814;28;3340;-61
2023/05/24 06:46:10;;;;;;;;;;;;;;;;;;4984446;28;3379;-63
2023/05/24 06:48:35;;;;;;;;;;;;;;;;;;4986909;28;3301;-64
2023/05/24 06:51:01;;;;;;;;;;;;;;;;;;4985457;28;3254;-63
2023/05/24 06:53:26;;;;;;;;;;;;;;;;;;4983257;28;2993;-61
2023/05/24 06:55:51;;;;;;;;;;;;;;;;;;4988966;28;1991;-62
2023/05/24 06:58:16;;;;;;;;;;;;;;;;;;4984575;28;2328;-63
2023/05/24 07:00:42;;;;;;;;;;;;;;;;;;4986255;28;1923;-63
2023/05/24 07:03:08;;;;;;;;;;;;;;;;;;4986483;28;3215;-63
2023/05/24 07:05:33;;;;;;;;;;;;;;;;;;4982628;28;3533;-61
2023/05/24 07:07:58;;;;;;;;;;;;;;;;;;4986355;28;3322;-62
2023/05/24 07:10:24;;;;;;;;;;;;;;;;;;4986088;28;3339;-62
2023/05/24 07:12:49;;;;;;;;;;;;;;;;;;4981410;28;3465;-61
2023/05/24 07:15:14;;;;;;;;;;;;;;;;;;4986153;28;3375;-62
2023/05/24 07:17:39;;;;;;;;;;;;;;;;;;4983033;28;3500;-61
2023/05/24 07:20:12;;;;;;;;;;;;;;;;;;4986617;28;3095;-63
2023/05/24 07:22:37;;;;;;;;;;;;;;;;;;4984786;28;1691;-63
2023/05/24 07:25:04;;;;;;;;;;;;;;;;;;4987486;28;1361;-63
2023/05/24 07:27:29;;;;;;;;;;;;;;;;;;4986252;28;1968;-61
2023/05/24 07:29:54;;;;;;;;;;;;;;;;;;4983500;28;4960;-60
2023/05/24 07:32:20;;;;;;;;;;;;;;;;;;4986233;28;1647;-61
2023/05/24 07:34:45;;;;;;;;;;;;;;;;;;4986877;28;1858;-61
2023/05/24 07:37:10;;;;;;;;;;;;;;;;;;4985755;28;2064;-61
2023/05/24 07:39:36;;;;;;;;;;;;;;;;;;4987428;28;1748;-62
2023/05/24 07:42:02;;;;;;;;;;;;;;;;;;4987882;28;1571;-62
2023/05/24 07:44:28;;;;;;;;;;;;;;;;;;4987167;28;1433;-60
2023/05/24 07:46:54;;;;;;;;;;;;;;;;;;4987442;28;1918;-60
2023/05/24 07:49:19;;;;;;;;;;;;;;;;;;4987131;28;1761;-61
2023/05/24 07:51:45;;;;;;;;;;;;;;;;;;4986981;28;2359;-60
2023/05/24 07:54:10;;;;;;;;;;;;;;;;;;4987439;28;1503;-62
2023/05/24 07:56:36;;;;;;;;;;;;;;;;;;4982039;28;1693;-62
2023/05/24 07:59:05;;;;;;;;;;;;;;;;;;4983938;28;1420;-62
2023/05/24 08:01:31;;;;;;;;;;;;;;;;;;4983116;28;3136;-62
2023/05/24 08:03:56;;;;;;;;;;;;;;;;;;4979199;28;3436;-61
2023/05/24 08:06:22;;;;;;;;;;;;;;;;;;4983236;28;1962;-63
2023/05/24 08:08:48;;;;;;;;;;;;;;;;;;4984044;28;1684;-56
2023/05/24 08:11:13;;;;;;;;;;;;;;;;;;4982508;28;3666;-57
2023/05/24 08:13:38;;;;;;;;;;;;;;;;;;4985968;28;3246;-57
2023/05/24 08:16:04;;;;;;;;;;;;;;;;;;4985661;28;3455;-57
2023/05/24 08:18:29;;;;;;;;;;;;;;;;;;4965387;28;3223;-58
2023/05/24 08:20:54;;;;;;;;;;;;;;;;;;4986089;28;3610;-56
2023/05/24 08:23:20;;;;;;;;;;;;;;;;;;4983033;28;3739;-58
2023/05/24 08:25:46;;;;;;;;;;;;;;;;;;4982821;28;3588;-61
2023/05/24 08:28:11;;;;;;;;;;;;;;;;;;4978056;28;1641;-59
2023/05/24 08:30:37;;;;;;;;;;;;;;;;;;4986075;28;5178;-57
2023/05/24 08:33:02;;;;;;;;;;;;;;;;;;4983580;28;3429;-59
2023/05/24 08:35:27;;;;;;;;;;;;;;;;;;4988862;28;3445;-58
2023/05/24 08:37:52;;;;;;;;;;;;;;;;;;4984152;28;1498;-61
2023/05/24 08:40:18;;;;;;;;;;;;;;;;;;4988210;28;3618;-59
2023/05/24 08:42:43;;;;;;;;;;;;;;;;;;4988466;28;3281;-59
2023/05/24 08:45:12;;;;;;;;;;;;;;;;;;4989354;28;3410;-60
2023/05/24 08:47:37;;;;;;;;;;;;;;;;;;4985831;28;3482;-60
2023/05/24 08:50:03;;;;;;;;;;;;;;;;;;4989648;28;3215;-60
2023/05/24 08:52:28;;;;;;;;;;;;;;;;;;4988669;28;1596;-57
2023/05/24 08:54:53;;;;;;;;;;;;;;;;;;4988835;28;1978;-58
2023/05/24 08:57:19;;;;;;;;;;;;;;;;;;4984814;28;3300;-53
2023/05/24 08:59:44;;;;;;;;;;;;;;;;;;4984391;28;3423;-53
2023/05/24 09:02:10;;;;;;;;;;;;;;;;;;4987805;28;3449;-55
2023/05/24 09:04:36;;;;;;;;;;;;;;;;;;4988677;28;1517;-57
2023/05/24 09:07:01;;;;;;;;;;;;;;;;;;4986337;28;3522;-68
2023/05/24 09:09:27;;;;;;;;;;;;;;;;;;4988306;28;3266;-55
2023/05/24 09:11:53;;;;;;;;;;;;;;;;;;4988126;28;3177;-65
2023/05/24 09:14:18;;;;;;;;;;;;;;;;;;4983529;28;3411;-58
2023/05/24 09:16:43;;;;;;;;;;;;;;;;;;4989345;28;1491;-58
2023/05/24 09:19:08;;;;;;;;;;;;;;;;;;4988938;28;3300;-58
2023/05/24 09:21:34;;;;;;;;;;;;;;;;;;4989157;28;3254;-59
2023/05/24 09:23:59;;;;;;;;;;;;;;;;;;4987864;28;1487;-59
2023/05/24 09:26:26;;;;;;;;;;;;;;;;;;4988988;28;1975;-58
2023/05/24 09:28:53;;;;;;;;;;;;;;;;;;4984183;28;3092;-59
2023/05/24 09:31:18;;;;;;;;;;;;;;;;;;4981043;28;3125;-61
2023/05/24 09:33:45;;;;;;;;;;;;;;;;;;4983079;28;3315;-61
2023/05/24 09:36:10;;;;;;;;;;;;;;;;;;4989141;28;1490;-61
2023/05/24 09:38:35;;;;;;;;;;;;;;;;;;4989490;28;1475;-60
2023/05/24 09:41:01;;;;;;;;;;;;;;;;;;4989408;28;1502;-63
2023/05/24 09:43:29;;;;;;;;;;;;;;;;;;4986642;28;3371;-60
2023/05/24 09:45:54;;;;;;;;;;;;;;;;;;4978953;28;2631;-61
2023/05/24 09:48:20;;;;;;;;;;;;;;;;;;4988666;28;1478;-61
2023/05/24 09:51:00;;;;;;;;;;;;;;;;;;4988974;28;1687;-60
2023/05/24 09:53:25;;;;;;;;;;;;;;;;;;4985105;28;3391;-59
2023/05/24 09:55:50;;;;;;;;;;;;;;;;;;4987441;28;3214;-59
2023/05/24 09:58:16;;;;;;;;;;;;;;;;;;4984104;28;1356;-58
2023/05/24 10:00:41;;;;;;;;;;;;;;;;;;4967692;28;1433;-60
2023/05/24 10:03:07;;;;;;;;;;;;;;;;;;4988093;28;3215;-59
2023/05/24 10:05:32;;;;;;;;;;;;;;;;;;5002121;28;3535;-60
2023/05/24 10:07:58;;;;;;;;;;;;;;;;;;4987420;28;3404;-65
2023/05/24 10:10:26;;;;;;;;;;;;;;;;;;4986638;28;3171;-63
2023/05/24 10:12:51;;;;;;;;;;;;;;;;;;4964703;28;1418;-67
2023/05/24 10:15:16;;;;;;;;;;;;;;;;;;4988049;28;2293;-68
2023/05/24 10:17:41;;;;;;;;;;;;;;;;;;4988633;28;1716;-62
2023/05/24 10:20:08;;;;;;;;;;;;;;;;;;4986148;28;1827;-64
2023/05/24 10:22:35;;;;;;;;;;;;;;;;;;4985331;28;1544;-66
2023/05/24 10:25:00;;;;;;;;;;;;;;;;;;5002807;28;1419;-64
2023/05/24 10:27:27;;;;;;;;;;;;;;;;;;4985908;28;3432;-64
2023/05/24 10:30:12;;;;;;;;;;;;;;;;;;4985449;28;5045;-65
2023/05/24 10:32:37;;;;;;;;;;;;;;;;;;4981049;28;1664;-64
2023/05/24 10:35:03;;;;;;;;;;;;;;;;;;4987297;28;1749;-67
2023/05/24 10:37:29;;;;;;;;;;;;;;;;;;4984975;28;3279;-65
2023/05/24 10:39:54;;;;;;;;;;;;;;;;;;4999075;28;3378;-63
2023/05/24 10:42:20;;;;;;;;;;;;;;;;;;4979647;28;3434;-64
2023/05/24 10:44:45;;;;;;;;;;;;;;;;;;4984965;28;3371;-62
2023/05/24 10:47:11;;;;;;;;;;;;;;;;;;4980611;28;2961;-68
2023/05/24 10:49:38;;;;;;;;;;;;;;;;;;4981023;28;3223;-67
2023/05/24 10:52:07;;;;;;;;;;;;;;;;;;4969216;28;3949;-67
2023/05/24 10:54:32;;;;;;;;;;;;;;;;;;4963910;28;3418;-67
2023/05/24 10:57:02;;;;;;;;;;;;;;;;;;4981642;28;3386;-66
2023/05/24 10:59:36;;;;;;;;;;;;;;;;;;4985741;28;3406;-63
2023/05/24 11:02:02;;;;;;;;;;;;;;;;;;4981465;28;3290;-64
2023/05/24 11:04:35;;;;;;;;;;;;;;;;;;4983005;28;3212;-62
2023/05/24 11:07:04;;;;;;;;;;;;;;;;;;4978510;28;7421;-57
2023/05/24 11:09:30;;;;;;;;;;;;;;;;;;4974384;28;5851;-57
2023/05/24 11:12:00;;;;;;;;;;;;;;;;;;4980590;28;5525;-57
2023/05/24 11:14:28;;;;;;;;;;;;;;;;;;5009531;28;3262;-55
2023/05/24 11:16:53;;;;;;;;;;;;;;;;;;4986971;28;5301;-55
2023/05/24 11:19:22;;;;;;;;;;;;;;;;;;4982234;28;3331;-55
2023/05/24 11:21:48;;;;;;;;;;;;;;;;;;4984902;28;1455;-55
2023/05/24 11:24:13;;;;;;;;;;;;;;;;;;4976235;28;7451;-59
2023/05/24 11:26:39;;;;;;;;;;;;;;;;;;4979349;28;5076;-62
2023/05/24 11:29:05;;;;;;;;;;;;;;;;;;4979482;28;5792;-61
2023/05/24 11:31:30;;;;;;;;;;;;;;;;;;4978738;28;2290;-61
2023/05/24 11:33:55;;;;;;;;;;;;;;;;;;4984198;28;6838;-61
2023/05/24 11:36:20;;;;;;;;;;;;;;;;;;4980950;28;5234;-61
2023/05/24 11:40:16;;;;;;;;;;;;;;;;;;5115822;27;3602;-64
2023/05/24 11:42:43;;;;;;;;;;;;;;;;;;5087433;28;3340;-61
2023/05/24 11:57:14;;;;;;;;;;;;;;;;;;5082740;27;2860;-62
2023/05/24 11:59:39;;;;;;;;;;;;;;;;;;5079018;28;6823;-61
2023/05/24 12:02:05;;;;;;;;;;;;;;;;;;5064926;28;1812;-62
2023/05/24 12:04:30;;;;;;;;;;;;;;;;;;5063793;28;1909;-61
2023/05/24 12:06:56;;;;;;;;;;;;;;;;;;5063603;28;7027;-62
2023/05/24 12:09:22;;;;;;;;;;;;;;;;;;5062514;28;1434;-61
2023/05/24 12:11:48;;;;;;;;;;;;;;;;;;5069396;28;1644;-62
2023/05/24 12:14:14;;;;;;;;;;;;;;;;;;5063977;28;1467;-61
2023/05/24 12:16:43;;;;;;;;;;;;;;;;;;5062825;28;1779;-60
2023/05/24 12:19:11;;;;;;;;;;;;;;;;;;5064014;28;1312;-59
2023/05/24 12:21:39;;;;;;;;;;;;;;;;;;5057431;28;1465;-61
2023/05/24 12:24:08;;;;;;;;;;;;;;;;;;5055954;28;8526;-59
2023/05/24 12:26:35;;;;;;;;;;;;;;;;;;5090479;28;1913;-60
2023/05/24 12:29:01;;;;;;;;;;;;;;;;;;5061872;28;1406;-62
2023/05/24 12:31:26;;;;;;;;;;;;;;;;;;5064021;28;1444;-61
2023/05/24 12:33:52;;;;;;;;;;;;;;;;;;5063899;28;1612;-62
2023/05/24 12:36:17;;;;;;;;;;;;;;;;;;5060424;28;1437;-62
2023/05/24 12:38:42;;;;;;;;;;;;;;;;;;5063454;28;1399;-60
2023/05/24 12:41:07;;;;;;;;;;;;;;;;;;5063479;28;1458;-61
2023/05/24 12:43:33;;;;;;;;;;;;;;;;;;5069579;28;1532;-62
2023/05/24 12:45:59;;;;;;;;;;;;;;;;;;5080601;28;3774;-61
2023/05/24 12:48:24;;;;;;;;;;;;;;;;;;5064040;28;1936;-62
2023/05/24 12:50:50;;;;;;;;;;;;;;;;;;5063770;28;1327;-59
2023/05/24 12:53:15;;;;;;;;;;;;;;;;;;5056976;28;1855;-62
2023/05/24 12:55:41;;;;;;;;;;;;;;;;;;5072761;28;1469;-61
2023/05/24 12:58:08;;;;;;;;;;;;;;;;;;5050410;28;7337;-60
2023/05/24 13:00:33;;;;;;;;;;;;;;;;;;5051806;28;1382;-62
2023/05/24 13:02:58;;;;;;;;;;;;;;;;;;5050237;28;1606;-61
2023/05/24 13:05:24;;;;;;;;;;;;;;;;;;5045055;28;1906;-60
2023/05/24 13:07:50;;;;;;;;;;;;;;;;;;5049861;28;1497;-59
2023/05/24 13:10:15;;;;;;;;;;;;;;;;;;5050180;28;1457;-66
2023/05/24 13:12:40;;;;;;;;;;;;;;;;;;5052072;28;1524;-61
2023/05/24 13:15:06;;;;;;;;;;;;;;;;;;5050915;28;1696;-61
2023/05/24 13:17:31;;;;;;;;;;;;;;;;;;5052732;28;1372;-62
2023/05/24 13:19:57;;;;;;;;;;;;;;;;;;5050785;28;1358;-61
2023/05/24 13:22:23;;;;;;;;;;;;;;;;;;5074573;28;1553;-61
2023/05/24 13:24:48;;;;;;;;;;;;;;;;;;5049296;28;1993;-61
2023/05/24 13:27:13;;;;;;;;;;;;;;;;;;5049060;28;1331;-59
2023/05/24 13:29:39;;;;;;;;;;;;;;;;;;5049884;28;1461;-61
2023/05/24 13:32:04;;;;;;;;;;;;;;;;;;5042094;28;1599;-61
2023/05/24 13:34:29;;;;;;;;;;;;;;;;;;5046628;28;1732;-61
2023/05/24 13:36:55;;;;;;;;;;;;;;;;;;5050255;28;1673;-58
2023/05/24 13:39:20;;;;;;;;;;;;;;;;;;5039854;28;1733;-62
2023/05/24 13:41:46;;;;;;;;;;;;;;;;;;5048140;28;2144;-61
2023/05/24 13:44:14;;;;;;;;;;;;;;;;;;5040527;28;8133;-65
2023/05/24 13:46:40;;;;;;;;;;;;;;;;;;5031568;28;5181;-67
2023/05/24 13:49:05;;;;;;;;;;;;;;;;;;5026967;28;5700;-64
2023/05/24 13:51:30;;;;;;;;;;;;;;;;;;5027106;28;2454;-65
2023/05/24 13:53:56;;;;;;;;;;;;;;;;;;5022846;28;5367;-64
2023/05/24 13:56:22;;;;;;;;;;;;;;;;;;5032335;28;2249;-64
2023/05/24 13:58:48;;;;;;;;;;;;;;;;;;5032842;28;1945;-62
2023/05/24 14:01:13;;;;;;;;;;;;;;;;;;5031868;28;5577;-62
2023/05/24 14:03:39;;;;;;;;;;;;;;;;;;5022823;28;1972;-63
2023/05/24 14:06:06;;;;;;;;;;;;;;;;;;5030012;28;1918;-63
2023/05/24 14:08:31;;;;;;;;;;;;;;;;;;5022814;28;1688;-66
2023/05/24 14:10:57;;;;;;;;;;;;;;;;;;5023626;28;1427;-66
2023/05/24 14:13:22;;;;;;;;;;;;;;;;;;5026833;28;1053;-66
2023/05/24 14:15:48;;;;;;;;;;;;;;;;;;5026367;28;1422;-67
2023/05/24 14:18:13;;;;;;;;;;;;;;;;;;5048208;28;7207;-68
2023/05/24 14:20:39;;;;;;;;;;;;;;;;;;5049245;28;1494;-62
2023/05/24 14:23:08;;;;;;;;;;;;;;;;;;5062077;28;1457;-62
2023/05/24 14:25:33;;;;;;;;;;;;;;;;;;5046543;28;1939;-69
2023/05/24 14:27:59;;;;;;;;;;;;;;;;;;5046319;28;2493;-68
2023/05/24 14:30:27;;;;;;;;;;;;;;;;;;5048951;28;1771;-68
2023/05/24 14:32:52;;;;;;;;;;;;;;;;;;5018723;28;1424;-67
2023/05/24 14:35:17;;;;;;;;;;;;;;;;;;5047555;28;1570;-64
2023/05/24 14:37:43;;;;;;;;;;;;;;;;;;5050351;28;1376;-65
2023/05/24 14:40:08;;;;;;;;;;;;;;;;;;5049778;28;1453;-67
2023/05/24 14:42:34;;;;;;;;;;;;;;;;;;5049521;28;1430;-62
2023/05/24 14:44:59;;;;;;;;;;;;;;;;;;5049110;28;1910;-65
2023/05/24 14:47:24;;;;;;;;;;;;;;;;;;5050188;28;1217;-65
2023/05/24 14:49:49;;;;;;;;;;;;;;;;;;5059390;28;1356;-65
2023/05/24 14:52:15;;;;;;;;;;;;;;;;;;5044574;28;6787;-65
2023/05/24 14:54:40;;;;;;;;;;;;;;;;;;5049529;28;1389;-65
2023/05/24 14:57:06;;;;;;;;;;;;;;;;;;5047968;28;1579;-65
2023/05/24 14:59:32;;;;;;;;;;;;;;;;;;5062703;28;1443;-63
2023/05/24 15:01:57;;;;;;;;;;;;;;;;;;5048715;28;1464;-65
2023/05/24 15:04:22;;;;;;;;;;;;;;;;;;5050195;28;1016;-65
2023/05/24 15:06:47;;;;;;;;;;;;;;;;;;5046811;28;1969;-64
2023/05/24 15:09:13;;;;;;;;;;;;;;;;;;5049229;28;1413;-63
2023/05/24 15:11:38;;;;;;;;;;;;;;;;;;5049310;28;1921;-64
2023/05/24 15:14:03;;;;;;;;;;;;;;;;;;5049984;28;2193;-65
2023/05/24 15:16:28;;;;;;;;;;;;;;;;;;5048894;28;2009;-64
2023/05/24 15:18:54;;;;;;;;;;;;;;;;;;5040529;28;1774;-65
2023/05/24 15:21:19;;;;;;;;;;;;;;;;;;5033998;28;1489;-66
2023/05/24 15:23:44;;;;;;;;;;;;;;;;;;5046318;28;1597;-64
2023/05/24 15:26:10;;;;;;;;;;;;;;;;;;5048921;28;1949;-65
2023/05/24 15:28:35;;;;;;;;;;;;;;;;;;5049040;28;1391;-66
2023/05/24 15:31:02;;;;;;;;;;;;;;;;;;5048942;28;1841;-65
2023/05/24 15:33:27;;;;;;;;;;;;;;;;;;5049182;28;1449;-63
2023/05/24 15:35:53;;;;;;;;;;;;;;;;;;5048980;28;1717;-62
2023/05/24 15:38:19;;;;;;;;;;;;;;;;;;5037582;28;1608;-64
2023/05/24 15:40:45;;;;;;;;;;;;;;;;;;5044887;28;1459;-66
2023/05/24 15:43:10;;;;;;;;;;;;;;;;;;5049778;28;1394;-67
2023/05/24 15:45:35;;;;;;;;;;;;;;;;;;5047561;28;1905;-66
2023/05/24 15:48:03;;;;;;;;;;;;;;;;;;5048763;28;1446;-65
2023/05/24 15:50:28;;;;;;;;;;;;;;;;;;5049199;28;1315;-65
2023/05/24 15:52:53;;;;;;;;;;;;;;;;;;5050062;28;1207;-66
2023/05/24 15:55:18;;;;;;;;;;;;;;;;;;5051168;28;1375;-66
2023/05/24 15:57:44;;;;;;;;;;;;;;;;;;5050112;28;1209;-66
2023/05/24 16:00:09;;;;;;;;;;;;;;;;;;5048833;28;1292;-67
2023/05/24 16:02:35;;;;;;;;;;;;;;;;;;5048237;28;1712;-65
2023/05/24 16:05:00;;;;;;;;;;;;;;;;;;5049628;28;1972;-66
2023/05/24 16:07:25;;;;;;;;;;;;;;;;;;5049578;28;1399;-66
2023/05/24 16:09:50;;;;;;;;;;;;;;;;;;5052543;28;1572;-67
2023/05/24 16:12:16;;;;;;;;;;;;;;;;;;5052283;28;1112;-67
2023/05/24 16:14:41;;;;;;;;;;;;;;;;;;5049315;28;1562;-66
2023/05/24 16:17:07;;;;;;;;;;;;;;;;;;5062491;28;1528;-66
2023/05/24 16:19:32;;;;;;;;;;;;;;;;;;5044496;28;1578;-65
2023/05/24 16:21:57;;;;;;;;;;;;;;;;;;5040765;28;1416;-65
2023/05/24 16:24:22;;;;;;;;;;;;;;;;;;5055836;28;1627;-65
2023/05/24 16:26:48;;;;;;;;;;;;;;;;;;5049696;28;1930;-66
2023/05/24 16:29:15;;;;;;;;;;;;;;;;;;5049531;28;998;-66
2023/05/24 16:31:40;;;;;;;;;;;;;;;;;;5050514;28;1171;-66
2023/05/24 16:34:06;;;;;;;;;;;;;;;;;;5067460;28;1417;-63
2023/05/24 16:36:31;;;;;;;;;;;;;;;;;;5051944;28;1359;-64
2023/05/24 16:38:57;;;;;;;;;;;;;;;;;;5049489;28;1828;-64
2023/05/24 16:41:22;;;;;;;;;;;;;;;;;;5052660;28;1814;-64
2023/05/24 16:43:47;;;;;;;;;;;;;;;;;;5043227;28;2106;-64
2023/05/24 16:46:12;;;;;;;;;;;;;;;;;;5047866;28;2447;-61
2023/05/24 16:48:38;;;;;;;;;;;;;;;;;;5058822;28;2049;-65
2023/05/24 16:51:04;;;;;;;;;;;;;;;;;;5048703;28;1900;-60
2023/05/24 16:53:29;;;;;;;;;;;;;;;;;;5039670;28;7367;-60
2023/05/24 16:55:55;;;;;;;;;;;;;;;;;;5048666;28;1792;-60
2023/05/24 16:58:23;;;;;;;;;;;;;;;;;;5050433;28;1502;-60
2023/05/24 17:00:48;;;;;;;;;;;;;;;;;;5048692;28;1890;-57
2023/05/24 17:03:13;;;;;;;;;;;;;;;;;;5033208;28;1941;-59
2023/05/24 17:05:39;;;;;;;;;;;;;;;;;;5037972;28;2038;-61
2023/05/24 17:08:04;;;;;;;;;;;;;;;;;;5055632;28;2007;-62